Thunder radar more information blitzortung!


Radar de pluja more information rain snow radar


Visita la nostra xarxa de llocs de meteo:

Template documentation
and downloads

And another site



No particular awareness of the weather is required.    There are no Weather-warnings

Pagina Historial Weather Underground text

Diari Resum Juliol 31, 2017 Unitats:  Mètric    Imperial   Tant
« Previous Dia
SegĂźent Dia »
Diari Setmana Mensual Anual Personalitzada
  Maxima: Minima: Media:
Temperatura: 32.1 °C 21.7 °C 28.2 °C
Punt de rosada: 20.5 °C 16.2 °C 18.5 °C
Humitat: 76 % 43 % 57 %
Wind Speed: 24.1 km/h 0.0 km/h 11.3 km/h
RĂ fegues de vent: 24.1 km/h - -
Vent:- - East
Pression baro: 1010.0 hPa 1007.0 hPa -
Precipitacions: 0.0 mm    
Historical Graphs
 
 
Dades de taula per Juliol 31, 2017
Temps Temperatura Punt de rosada Pression baro Vent Wind Speed RĂ fegues de vent Humitat Rainfall Rate (Hourly)
00:00 22.5 °C 17.0 °C 1010.0 hPa NE 4.8 km/h 6.4 km/h 71 % 0.0 mm
00:01 24.2 °C 18.8 °C 1010.0 hPa SW 1.9 km/h 1.9 km/h 72 % 0.0 mm
00:06 24.2 °C 19.1 °C 1010.0 hPa Calm     73 % 0.0 mm
00:10 22.4 °C 16.9 °C 1010.0 hPa NE 3.2 km/h 4.8 km/h 71 % 0.0 mm
00:11 24.2 °C 19.1 °C 1010.0 hPa ENE 3.2 km/h 3.2 km/h 73 % 0.0 mm
00:20 22.4 °C 16.9 °C 1010.0 hPa NNE 3.2 km/h 6.4 km/h 71 % 0.0 mm
00:30 22.4 °C 16.9 °C 1010.0 hPa NNE 4.8 km/h 6.4 km/h 71 % 0.0 mm
00:40 22.4 °C 16.9 °C 1010.0 hPa NNE 4.8 km/h 6.4 km/h 71 % 0.0 mm
00:50 22.4 °C 16.9 °C 1010.0 hPa NNE 4.8 km/h 6.4 km/h 71 % 0.0 mm
01:00 22.3 °C 17.0 °C 1010.0 hPa NE 4.8 km/h 4.8 km/h 72 % 0.0 mm
01:10 22.3 °C 17.0 °C 1010.0 hPa NE 4.8 km/h 6.4 km/h 72 % 0.0 mm
01:20 22.2 °C 16.7 °C 1010.0 hPa NE 4.8 km/h 4.8 km/h 71 % 0.0 mm
01:30 22.2 °C 16.9 °C 1010.0 hPa NE 4.8 km/h 6.4 km/h 72 % 0.0 mm
01:40 22.1 °C 16.8 °C 1010.0 hPa NE 4.8 km/h 6.4 km/h 72 % 0.0 mm
01:50 22.0 °C 16.7 °C 1010.0 hPa NNE 4.8 km/h 6.4 km/h 72 % 0.0 mm
02:00 21.8 °C 16.7 °C 1010.0 hPa NNE 3.2 km/h 4.8 km/h 73 % 0.0 mm
02:10 21.7 °C 16.4 °C 1010.0 hPa NNE 3.2 km/h 4.8 km/h 72 % 0.0 mm
02:20 21.7 °C 16.2 °C 1010.0 hPa NNE 1.6 km/h 4.8 km/h 71 % 0.0 mm
02:30 21.9 °C 16.4 °C 1010.0 hPa NNE 1.6 km/h 4.8 km/h 71 % 0.0 mm
02:40 22.3 °C 16.3 °C 1010.0 hPa NNE 3.2 km/h 4.8 km/h 69 % 0.0 mm
02:50 22.6 °C 16.6 °C 1009.0 hPa NNE 3.2 km/h 4.8 km/h 69 % 0.0 mm
03:00 22.9 °C 16.7 °C 1009.0 hPa NE 3.2 km/h 4.8 km/h 68 % 0.0 mm
03:10 23.2 °C 17.2 °C 1009.0 hPa ENE 4.8 km/h 4.8 km/h 69 % 0.0 mm
03:20 23.5 °C 17.5 °C 1010.0 hPa ENE 4.8 km/h 4.8 km/h 69 % 0.0 mm
03:30 23.7 °C 17.7 °C 1010.0 hPa ENE 4.8 km/h 6.4 km/h 69 % 0.0 mm
03:40 23.9 °C 17.9 °C 1009.0 hPa East 3.2 km/h 4.8 km/h 69 % 0.0 mm
03:50 24.4 °C 18.1 °C 1010.0 hPa ENE 4.8 km/h 6.4 km/h 68 % 0.0 mm
04:00 24.4 °C 18.1 °C 1010.0 hPa ENE 4.8 km/h 6.4 km/h 68 % 0.0 mm
04:10 24.7 °C 18.2 °C 1009.0 hPa ENE 4.8 km/h 8.0 km/h 67 % 0.0 mm
04:20 25.1 °C 18.3 °C 1010.0 hPa ENE 4.8 km/h 8.0 km/h 66 % 0.0 mm
04:30 25.3 °C 18.5 °C 1010.0 hPa East 4.8 km/h 8.0 km/h 66 % 0.0 mm
04:40 25.4 °C 18.3 °C 1010.0 hPa ESE 8.0 km/h 8.0 km/h 65 % 0.0 mm
04:50 26.3 °C 18.9 °C 1010.0 hPa ESE 3.2 km/h 8.0 km/h 64 % 0.0 mm
05:00 26.5 °C 18.6 °C 1010.0 hPa East 9.7 km/h 9.7 km/h 62 % 0.0 mm
05:10 26.8 °C 18.4 °C 1010.0 hPa ENE 8.0 km/h 9.7 km/h 60 % 0.0 mm
05:20 27.0 °C 18.3 °C 1010.0 hPa East 4.8 km/h 6.4 km/h 59 % 0.0 mm
05:30 27.0 °C 18.1 °C 1010.0 hPa East 8.0 km/h 9.7 km/h 58 % 0.0 mm
05:40 27.6 °C 18.3 °C 1010.0 hPa East 11.3 km/h 19.3 km/h 57 % 0.0 mm
05:50 27.7 °C 17.8 °C 1010.0 hPa East 4.8 km/h 12.9 km/h 55 % 0.0 mm
06:00 27.8 °C 17.3 °C 1010.0 hPa East 8.0 km/h 16.1 km/h 53 % 0.0 mm
11:03 28.2 °C 17.4 °C 1010.0 hPa ENE 16.1 km/h 16.1 km/h 52 % 0.0 mm
11:08 28.3 °C 17.5 °C 1010.0 hPa ENE 13.0 km/h 13.0 km/h 52 % 0.0 mm
11:13 28.6 °C 17.4 °C 1010.0 hPa ESE 9.7 km/h 9.7 km/h 51 % 0.0 mm
11:18 28.8 °C 17.7 °C 1009.0 hPa NNW 15.1 km/h 15.1 km/h 51 % 0.0 mm
11:23 29.0 °C 17.5 °C 1009.0 hPa ESE 14.8 km/h 14.8 km/h 50 % 0.0 mm
11:28 29.1 °C 17.6 °C 1009.0 hPa North 14.8 km/h 14.8 km/h 50 % 0.0 mm
11:33 29.4 °C 17.9 °C 1010.0 hPa ENE 13.0 km/h 13.0 km/h 50 % 0.0 mm
11:38 29.8 °C 18.3 °C 1010.0 hPa NNE 8.7 km/h 8.7 km/h 50 % 0.0 mm
11:43 29.9 °C 18.1 °C 1010.0 hPa East 11.4 km/h 11.4 km/h 49 % 0.0 mm
11:48 29.8 °C 18.3 °C 1010.0 hPa ENE 15.1 km/h 15.1 km/h 50 % 0.0 mm
11:53 29.6 °C 18.1 °C 1010.0 hPa ESE 13.0 km/h 13.0 km/h 50 % 0.0 mm
11:58 29.6 °C 17.8 °C 1010.0 hPa ESE 13.0 km/h 13.0 km/h 49 % 0.0 mm
12:03 30.3 °C 18.4 °C 1010.0 hPa SE 9.3 km/h 9.3 km/h 49 % 0.0 mm
12:08 30.4 °C 17.8 °C 1010.0 hPa ENE 14.0 km/h 14.0 km/h 47 % 0.0 mm
12:13 30.1 °C 17.2 °C 1010.0 hPa ENE 11.1 km/h 11.1 km/h 46 % 0.0 mm
12:18 30.2 °C 17.3 °C 1009.0 hPa ESE 11.1 km/h 11.1 km/h 46 % 0.0 mm
12:23 30.4 °C 17.5 °C 1009.0 hPa East 13.0 km/h 13.0 km/h 46 % 0.0 mm
12:28 30.7 °C 17.4 °C 1009.0 hPa ENE 22.2 km/h 22.2 km/h 45 % 0.0 mm
12:33 30.6 °C 17.7 °C 1009.0 hPa ENE 13.0 km/h 13.0 km/h 46 % 0.0 mm
12:38 30.7 °C 17.8 °C 1009.0 hPa ESE 13.0 km/h 13.0 km/h 46 % 0.0 mm
12:43 30.7 °C 17.8 °C 1009.0 hPa SE 13.0 km/h 13.0 km/h 46 % 0.0 mm
12:48 30.7 °C 17.8 °C 1009.0 hPa SW 13.0 km/h 13.0 km/h 46 % 0.0 mm
12:53 30.8 °C 17.5 °C 1009.0 hPa ESE 22.2 km/h 22.2 km/h 45 % 0.0 mm
12:58 31.1 °C 17.8 °C 1009.0 hPa NE 9.3 km/h 9.3 km/h 45 % 0.0 mm
13:03 31.0 °C 17.7 °C 1008.0 hPa NNE 9.3 km/h 9.7 km/h 45 % 0.0 mm
13:08 30.6 °C 17.3 °C 1008.0 hPa East 18.5 km/h 18.5 km/h 45 % 0.0 mm
13:13 31.3 °C 17.9 °C 1008.0 hPa ESE 9.7 km/h 9.7 km/h 45 % 0.0 mm
13:18 31.5 °C 18.1 °C 1009.0 hPa ESE 20.4 km/h 20.4 km/h 45 % 0.0 mm
13:23 31.1 °C 17.4 °C 1009.0 hPa ESE 13.0 km/h 13.0 km/h 44 % 0.0 mm
13:28 31.2 °C 17.5 °C 1009.0 hPa ENE 16.9 km/h 16.9 km/h 44 % 0.0 mm
13:33 31.6 °C 17.8 °C 1008.0 hPa SE 13.0 km/h 13.0 km/h 44 % 0.0 mm
13:38 31.8 °C 18.1 °C 1008.0 hPa SE 16.7 km/h 16.7 km/h 44 % 0.0 mm
13:43 31.7 °C 17.9 °C 1008.0 hPa East 7.9 km/h 7.9 km/h 44 % 0.0 mm
13:48 31.9 °C 18.1 °C 1008.0 hPa East 13.0 km/h 13.0 km/h 44 % 0.0 mm
13:53 31.6 °C 17.8 °C 1008.0 hPa East 14.8 km/h 14.8 km/h 44 % 0.0 mm
13:58 31.5 °C 17.8 °C 1008.0 hPa ESE 9.3 km/h 10.0 km/h 44 % 0.0 mm
14:03 31.8 °C 18.1 °C 1009.0 hPa ESE 14.8 km/h 14.8 km/h 44 % 0.0 mm
14:08 31.9 °C 18.1 °C 1009.0 hPa ESE 14.8 km/h 14.8 km/h 44 % 0.0 mm
14:13 31.9 °C 18.1 °C 1009.0 hPa SE 13.0 km/h 13.0 km/h 44 % 0.0 mm
14:18 31.9 °C 17.8 °C 1009.0 hPa East 14.8 km/h 14.8 km/h 43 % 0.0 mm
14:23 32.1 °C 17.9 °C 1009.0 hPa East 14.8 km/h 14.8 km/h 43 % 0.0 mm
14:28 31.7 °C 18.3 °C 1009.0 hPa ESE 16.7 km/h 16.7 km/h 45 % 0.0 mm
14:33 31.8 °C 18.4 °C 1010.0 hPa ESE 16.7 km/h 16.7 km/h 45 % 0.0 mm
14:38 31.7 °C 18.3 °C 1010.0 hPa ENE 14.8 km/h 14.8 km/h 45 % 0.0 mm
14:43 31.7 °C 18.3 °C 1010.0 hPa ENE 20.4 km/h 20.4 km/h 45 % 0.0 mm
14:48 31.7 °C 18.3 °C 1009.0 hPa ESE 19.5 km/h 19.5 km/h 45 % 0.0 mm
14:53 31.4 °C 18.4 °C 1009.0 hPa ESE 22.2 km/h 22.2 km/h 46 % 0.0 mm
14:58 31.3 °C 18.3 °C 1009.0 hPa ESE 16.7 km/h 16.7 km/h 46 % 0.0 mm
15:03 31.4 °C 18.7 °C 1009.0 hPa ESE 22.2 km/h 22.2 km/h 47 % 0.0 mm
15:08 31.2 °C 18.6 °C 1009.0 hPa ESE 18.5 km/h 18.5 km/h 47 % 0.0 mm
15:13 31.0 °C 18.4 °C 1009.0 hPa ESE 24.1 km/h 24.1 km/h 47 % 0.0 mm
15:18 31.2 °C 18.6 °C 1009.0 hPa SE 14.0 km/h 14.0 km/h 47 % 0.0 mm
15:23 31.3 °C 18.7 °C 1009.0 hPa SE 16.7 km/h 16.7 km/h 47 % 0.0 mm
15:28 31.1 °C 18.8 °C 1009.0 hPa ESE 16.4 km/h 16.4 km/h 48 % 0.0 mm
15:33 31.2 °C 18.9 °C 1009.0 hPa ESE 16.7 km/h 16.7 km/h 48 % 0.0 mm
15:38 31.4 °C 19.4 °C 1009.0 hPa ESE 7.4 km/h 7.6 km/h 49 % 0.0 mm
15:43 31.4 °C 19.1 °C 1009.0 hPa ESE 16.7 km/h 16.7 km/h 48 % 0.0 mm
15:48 31.3 °C 19.0 °C 1008.0 hPa ESE 13.0 km/h 13.0 km/h 48 % 0.0 mm
15:53 31.5 °C 19.2 °C 1008.0 hPa ENE 18.5 km/h 18.5 km/h 48 % 0.0 mm
15:58 31.6 °C 19.3 °C 1008.0 hPa NE 13.0 km/h 13.0 km/h 48 % 0.0 mm
16:03 31.6 °C 19.3 °C 1008.0 hPa ESE 14.8 km/h 14.8 km/h 48 % 0.0 mm
16:08 31.4 °C 18.7 °C 1008.0 hPa SE 13.0 km/h 13.0 km/h 47 % 0.0 mm
16:13 31.5 °C 19.2 °C 1008.0 hPa ESE 13.0 km/h 13.0 km/h 48 % 0.0 mm
16:18 31.4 °C 19.1 °C 1008.0 hPa ESE 11.1 km/h 11.1 km/h 48 % 0.0 mm
16:23 31.8 °C 19.1 °C 1008.0 hPa ESE 11.1 km/h 11.1 km/h 47 % 0.0 mm
16:24 31.8 °C 19.1 °C 1008.0 hPa ESE 11.1 km/h 11.1 km/h 47 % 0.0 mm
16:29 31.6 °C 18.9 °C 1008.0 hPa ENE 16.7 km/h 16.7 km/h 47 % 0.0 mm
16:34 31.8 °C 18.8 °C 1008.0 hPa ESE 16.7 km/h 16.7 km/h 46 % 0.0 mm
16:39 31.8 °C 18.8 °C 1008.0 hPa ESE 13.7 km/h 13.7 km/h 46 % 0.0 mm
16:44 32.1 °C 19.0 °C 1008.0 hPa ENE 13.0 km/h 13.0 km/h 46 % 0.0 mm
16:49 31.9 °C 19.2 °C 1008.0 hPa SE 15.6 km/h 15.6 km/h 47 % 0.0 mm
16:54 31.6 °C 18.9 °C 1008.0 hPa ENE 13.0 km/h 13.0 km/h 47 % 0.0 mm
16:59 31.4 °C 18.7 °C 1008.0 hPa ESE 13.0 km/h 13.0 km/h 47 % 0.0 mm
17:04 31.4 °C 18.7 °C 1008.0 hPa ESE 13.0 km/h 13.0 km/h 47 % 0.0 mm
17:05 31.4 °C 18.7 °C 1008.0 hPa SSE 18.5 km/h 18.5 km/h 47 % 0.0 mm
17:10 31.5 °C 18.8 °C 1008.0 hPa ESE 14.8 km/h 14.8 km/h 47 % 0.0 mm
17:15 31.4 °C 18.7 °C 1008.0 hPa SE 20.6 km/h 20.6 km/h 47 % 0.0 mm
17:20 31.0 °C 18.4 °C 1008.0 hPa East 13.0 km/h 13.0 km/h 47 % 0.0 mm
17:25 31.1 °C 18.4 °C 1008.0 hPa ESE 16.7 km/h 16.7 km/h 47 % 0.0 mm
17:30 31.2 °C 18.9 °C 1008.0 hPa ESE 9.3 km/h 9.3 km/h 48 % 0.0 mm
17:35 31.0 °C 18.4 °C 1008.0 hPa East 11.1 km/h 11.1 km/h 47 % 0.0 mm
17:40 30.8 °C 18.5 °C 1008.0 hPa ESE 16.7 km/h 16.7 km/h 48 % 0.0 mm
17:45 30.3 °C 18.4 °C 1008.0 hPa East 14.5 km/h 20.9 km/h 49 % 0.0 mm
17:50 30.3 °C 18.7 °C 1008.0 hPa ESE 4.8 km/h 16.1 km/h 50 % 0.0 mm
17:55 30.2 °C 18.3 °C 1008.0 hPa ESE 11.3 km/h 17.7 km/h 49 % 0.0 mm
18:00 29.9 °C 18.7 °C 1008.0 hPa ESE 13.0 km/h 13.0 km/h 51 % 0.0 mm
18:05 29.7 °C 18.5 °C 1008.0 hPa ESE 16.4 km/h 16.4 km/h 51 % 0.0 mm
18:10 29.6 °C 19.0 °C 1008.0 hPa ESE 9.3 km/h 9.3 km/h 53 % 0.0 mm
18:15 29.6 °C 19.0 °C 1008.0 hPa ENE 16.7 km/h 16.7 km/h 53 % 0.0 mm
18:20 29.3 °C 19.1 °C 1008.0 hPa East 18.5 km/h 18.5 km/h 54 % 0.0 mm
18:25 29.2 °C 18.9 °C 1008.0 hPa East 9.7 km/h 16.1 km/h 54 % 0.0 mm
18:30 29.0 °C 19.3 °C 1008.0 hPa NNE 13.0 km/h 13.0 km/h 56 % 0.0 mm
18:35 29.1 °C 19.4 °C 1008.0 hPa NE 11.1 km/h 11.1 km/h 56 % 0.0 mm
18:40 28.6 °C 19.5 °C 1008.0 hPa East 16.7 km/h 16.7 km/h 58 % 0.0 mm
18:45 28.5 °C 19.7 °C 1008.0 hPa East 13.0 km/h 13.0 km/h 59 % 0.0 mm
18:50 28.4 °C 19.3 °C 1008.0 hPa NE 13.0 km/h 13.0 km/h 58 % 0.0 mm
18:55 28.2 °C 19.4 °C 1008.0 hPa East 13.0 km/h 13.0 km/h 59 % 0.0 mm
19:00 28.0 °C 19.5 °C 1008.0 hPa ESE 11.4 km/h 11.4 km/h 60 % 0.0 mm
19:05 28.0 °C 19.5 °C 1008.0 hPa ESE 14.0 km/h 14.0 km/h 60 % 0.0 mm
19:10 28.1 °C 19.3 °C 1008.0 hPa ESE 13.0 km/h 13.0 km/h 59 % 0.0 mm
19:15 28.2 °C 19.4 °C 1008.0 hPa ENE 13.0 km/h 13.0 km/h 59 % 0.0 mm
19:20 28.0 °C 19.5 °C 1007.0 hPa ENE 16.7 km/h 16.7 km/h 60 % 0.0 mm
19:25 28.1 °C 19.6 °C 1007.0 hPa East 9.3 km/h 9.3 km/h 60 % 0.0 mm
19:30 27.9 °C 19.4 °C 1007.0 hPa ENE 13.0 km/h 13.0 km/h 60 % 0.0 mm
19:35 27.7 °C 19.2 °C 1007.0 hPa ESE 13.0 km/h 13.0 km/h 60 % 0.0 mm
19:40 27.7 °C 19.5 °C 1007.0 hPa ESE 11.1 km/h 11.1 km/h 61 % 0.0 mm
19:45 27.6 °C 19.7 °C 1007.0 hPa East 16.7 km/h 16.7 km/h 62 % 0.0 mm
19:50 27.5 °C 19.6 °C 1008.0 hPa ESE 11.1 km/h 11.1 km/h 62 % 0.0 mm
19:55 27.5 °C 19.8 °C 1008.0 hPa East 9.3 km/h 9.3 km/h 63 % 0.0 mm
20:00 27.4 °C 19.7 °C 1008.0 hPa ESE 13.0 km/h 13.0 km/h 63 % 0.0 mm
20:05 27.3 °C 19.6 °C 1008.0 hPa ESE 13.0 km/h 13.0 km/h 63 % 0.0 mm
20:10 27.2 °C 19.6 °C 1008.0 hPa East 14.8 km/h 14.8 km/h 63 % 0.0 mm
20:15 27.1 °C 19.4 °C 1008.0 hPa ESE 8.7 km/h 8.7 km/h 63 % 0.0 mm
20:20 27.0 °C 19.6 °C 1008.0 hPa ESE 13.0 km/h 13.0 km/h 64 % 0.0 mm
20:25 27.0 °C 19.3 °C 1008.0 hPa East 9.3 km/h 9.3 km/h 63 % 0.0 mm
20:26 27.0 °C 19.3 °C 1008.0 hPa ENE 9.3 km/h 9.3 km/h 63 % 0.0 mm
20:31 26.9 °C 19.8 °C 1008.0 hPa ESE 9.3 km/h 9.3 km/h 65 % 0.0 mm
20:36 26.8 °C 19.7 °C 1008.0 hPa East 6.9 km/h 6.9 km/h 65 % 0.0 mm
20:41 26.7 °C 19.8 °C 1008.0 hPa ESE 5.6 km/h 5.6 km/h 66 % 0.0 mm
20:46 26.6 °C 19.9 °C 1008.0 hPa SE 11.4 km/h 11.4 km/h 67 % 0.0 mm
20:51 26.4 °C 19.8 °C 1008.0 hPa SSE 9.0 km/h 9.0 km/h 67 % 0.0 mm
20:56 26.3 °C 19.9 °C 1008.0 hPa East 10.0 km/h 10.0 km/h 68 % 0.0 mm
21:01 26.2 °C 20.1 °C 1008.0 hPa ESE 7.4 km/h 7.4 km/h 69 % 0.0 mm
21:06 26.0 °C 19.9 °C 1008.0 hPa SE 11.1 km/h 11.1 km/h 69 % 0.0 mm
21:11 26.0 °C 19.9 °C 1008.0 hPa ESE 11.1 km/h 11.1 km/h 69 % 0.0 mm
21:16 25.9 °C 20.0 °C 1008.0 hPa ENE 11.1 km/h 11.1 km/h 70 % 0.0 mm
21:21 25.8 °C 19.7 °C 1008.0 hPa NE 5.6 km/h 5.6 km/h 69 % 0.0 mm
21:26 25.7 °C 19.6 °C 1008.0 hPa ENE 7.4 km/h 7.4 km/h 69 % 0.0 mm
21:31 25.7 °C 19.6 °C 1008.0 hPa ENE 9.3 km/h 9.3 km/h 69 % 0.0 mm
21:36 25.6 °C 19.7 °C 1008.0 hPa ENE 9.3 km/h 9.3 km/h 70 % 0.0 mm
21:41 25.5 °C 19.8 °C 1008.0 hPa ESE 8.7 km/h 8.7 km/h 71 % 0.0 mm
21:46 25.5 °C 19.8 °C 1008.0 hPa ENE 7.4 km/h 7.4 km/h 71 % 0.0 mm
21:51 25.4 °C 20.0 °C 1008.0 hPa East 9.3 km/h 9.3 km/h 72 % 0.0 mm
21:56 25.3 °C 19.9 °C 1008.0 hPa ENE 13.0 km/h 13.0 km/h 72 % 0.0 mm
21:57 25.3 °C 20.1 °C 1008.0 hPa ESE 9.3 km/h 9.3 km/h 73 % 0.0 mm
22:02 25.2 °C 20.0 °C 1008.0 hPa ESE 9.3 km/h 9.3 km/h 73 % 0.0 mm
22:07 25.2 °C 20.2 °C 1008.0 hPa NNE 9.3 km/h 9.3 km/h 74 % 0.0 mm
22:12 25.1 °C 20.1 °C 1008.0 hPa ENE 11.1 km/h 11.1 km/h 74 % 0.0 mm
22:17 25.1 °C 20.3 °C 1008.0 hPa ENE 13.0 km/h 13.0 km/h 75 % 0.0 mm
22:22 25.0 °C 20.3 °C 1008.0 hPa ENE 11.1 km/h 11.1 km/h 75 % 0.0 mm
22:27 25.0 °C 20.5 °C 1008.0 hPa East 9.3 km/h 9.3 km/h 76 % 0.0 mm
Meteo Sesrovires
Elogis d' Weather Underground - 3.5 mb

Guio original per  Jim McMurry - jmcmurry@mwt.net Adaptat per a la plantilla per  Wim van der Kuil - Leuven-Template.eu

Trobareu la nostra informacio del temps tambe a:

Weather Underground

AWEKAS